Time;durP1;ratioP1;P1;durP2;ratioP2;P2;SDS_P1;SDS_P2;PMS_P1;PMS_P2;Temp;Humidity;BMP_temperature;BMP_pressure;BME280_temperature;BME280_humidity;BME280_pressure;Samples;Min_cycle;Max_cycle;Signal;HPM_P1;HPM_P2
2022/08/30 00:02:35;;;;;;;7.63;5.33;;;16.80;99.90;;;;;;6062191;23;20195;-56
2022/08/30 00:05:04;;;;;;;10.30;5.47;;;16.80;99.90;;;;;;6066453;23;20175;-56
2022/08/30 00:07:33;;;;;;;9.53;4.77;;;16.80;99.90;;;;;;6064842;23;20193;-56
2022/08/30 00:10:02;;;;;;;8.27;5.30;;;16.80;99.90;;;;;;6017116;23;20172;-56
2022/08/30 00:12:31;;;;;;;6.70;5.40;;;16.70;99.90;;;;;;6064552;23;20306;-56
2022/08/30 00:15:00;;;;;;;12.63;5.53;;;16.70;99.90;;;;;;6065371;23;20234;-56
2022/08/30 00:17:28;;;;;;;7.60;5.30;;;16.70;99.90;;;;;;6064890;23;20288;-56
2022/08/30 00:20:02;;;;;;;10.17;5.93;;;16.70;99.90;;;;;;6039177;23;20419;-56
2022/08/30 00:22:31;;;;;;;12.87;5.37;;;16.80;99.90;;;;;;6064780;23;20222;-56
2022/08/30 00:25:00;;;;;;;12.90;5.80;;;16.80;99.90;;;;;;6064102;23;20172;-56
2022/08/30 00:27:29;;;;;;;8.57;5.77;;;16.80;99.90;;;;;;6064134;23;20246;-55
2022/08/30 00:29:58;;;;;;;11.23;5.43;;;16.80;99.90;;;;;;6064528;23;20201;-56
2022/08/30 00:32:26;;;;;;;9.80;6.23;;;16.90;99.90;;;;;;6038364;23;20264;-56
2022/08/30 00:34:55;;;;;;;9.43;6.07;;;16.90;99.90;;;;;;6039883;23;20667;-56
2022/08/30 00:37:24;;;;;;;9.93;6.03;;;16.90;99.90;;;;;;6039606;23;20177;-57
2022/08/30 00:39:53;;;;;;;10.70;6.60;;;16.90;99.90;;;;;;6064489;23;20168;-56
2022/08/30 00:42:22;;;;;;;8.87;6.30;;;16.90;99.90;;;;;;6065010;23;20196;-56
2022/08/30 00:44:52;;;;;;;12.83;6.63;;;16.90;99.90;;;;;;6065122;23;20172;-56
2022/08/30 00:47:23;;;;;;;10.57;6.60;;;16.90;99.90;;;;;;6065621;23;20252;-57
2022/08/30 00:49:54;;;;;;;11.90;7.07;;;16.90;99.90;;;;;;6064759;23;20170;-56
2022/08/30 00:52:24;;;;;;;9.73;6.67;;;16.90;99.90;;;;;;6065187;23;20198;-56
2022/08/30 00:54:53;;;;;;;15.27;7.17;;;16.90;99.90;;;;;;6063341;23;20192;-56
2022/08/30 00:57:21;;;;;;;8.53;6.67;;;16.90;99.90;;;;;;6064709;23;20174;-56
2022/08/30 00:59:50;;;;;;;11.63;6.73;;;16.90;99.90;;;;;;6065878;23;20657;-56
2022/08/30 01:02:22;;;;;;;12.63;7.10;;;16.90;99.90;;;;;;6064715;23;20281;-56
2022/08/30 01:04:52;;;;;;;11.67;6.80;;;16.80;99.90;;;;;;6039705;23;20455;-57
2022/08/30 01:07:20;;;;;;;12.13;7.30;;;16.80;99.90;;;;;;6064124;23;20698;-56
2022/08/30 01:09:50;;;;;;;12.27;6.90;;;16.80;99.90;;;;;;6064811;23;20192;-56
2022/08/30 01:12:18;;;;;;;8.40;7.37;;;16.70;99.90;;;;;;6064707;23;20534;-57
2022/08/30 01:14:47;;;;;;;11.43;7.60;;;16.70;99.90;;;;;;6066006;23;20175;-56
2022/08/30 01:17:17;;;;;;;13.03;7.47;;;16.70;99.90;;;;;;6066244;23;20228;-56
2022/08/30 01:19:55;;;;;;;11.47;7.60;;;16.70;99.90;;;;;;6065748;23;20177;-56
2022/08/30 01:22:30;;;;;;;13.77;7.53;;;16.70;99.90;;;;;;6065483;23;21016;-56
2022/08/30 01:25:02;;;;;;;13.50;7.80;;;16.70;99.90;;;;;;6066833;23;20239;-56
2022/08/30 01:27:38;;;;;;;10.17;7.13;;;16.70;99.90;;;;;;6065393;23;20228;-56
2022/08/30 01:30:09;;;;;;;13.67;8.00;;;16.70;99.90;;;;;;6065546;23;20203;-56
2022/08/30 01:32:40;;;;;;;14.83;8.03;;;16.70;99.90;;;;;;6065857;23;20664;-56
2022/08/30 01:35:10;;;;;;;13.07;7.50;;;16.60;99.90;;;;;;6065280;23;20184;-56
2022/08/30 01:37:39;;;;;;;11.77;7.67;;;16.60;99.90;;;;;;6064629;23;20558;-56
2022/08/30 01:40:10;;;;;;;12.47;7.53;;;16.60;99.90;;;;;;6041048;23;20174;-56
2022/08/30 01:42:38;;;;;;;13.07;7.70;;;16.60;99.90;;;;;;6063895;23;20170;-56
2022/08/30 01:45:09;;;;;;;15.67;8.07;;;16.50;99.90;;;;;;6065882;23;20196;-56
2022/08/30 01:47:39;;;;;;;16.47;8.70;;;16.50;99.90;;;;;;6065157;23;20247;-56
2022/08/30 01:50:09;;;;;;;19.97;8.40;;;16.50;99.90;;;;;;6067123;23;20183;-57
2022/08/30 01:52:38;;;;;;;14.87;7.70;;;16.50;99.90;;;;;;6065679;23;20195;-57
2022/08/30 01:55:09;;;;;;;17.37;8.23;;;16.40;99.90;;;;;;6067030;23;20255;-57
2022/08/30 01:57:38;;;;;;;17.43;8.60;;;16.40;99.90;;;;;;6065390;23;20175;-57
2022/08/30 02:00:08;;;;;;;14.47;8.27;;;16.40;99.90;;;;;;6065962;23;20173;-57
2022/08/30 02:02:36;;;;;;;13.60;8.33;;;16.40;99.90;;;;;;6065920;23;20189;-58
2022/08/30 02:05:06;;;;;;;13.97;8.47;;;16.40;99.90;;;;;;6040094;23;20590;-57
2022/08/30 02:07:34;;;;;;;18.00;8.90;;;16.40;99.90;;;;;;6063066;23;20565;-57
2022/08/30 02:10:03;;;;;;;14.73;8.23;;;16.30;99.90;;;;;;6066461;23;20249;-58
2022/08/30 02:12:33;;;;;;;11.67;8.47;;;16.30;99.90;;;;;;6065722;23;20251;-57
2022/08/30 02:15:02;;;;;;;11.97;8.70;;;16.30;99.90;;;;;;6065883;23;20269;-58
2022/08/30 02:17:31;;;;;;;15.17;9.03;;;16.30;99.90;;;;;;6038706;23;20191;-58
2022/08/30 02:20:00;;;;;;;13.03;9.20;;;16.20;99.90;;;;;;6065504;23;20247;-58
2022/08/30 02:22:28;;;;;;;19.43;9.37;;;16.20;99.90;;;;;;6039526;23;20734;-57
2022/08/30 02:24:56;;;;;;;14.57;8.90;;;16.10;99.90;;;;;;6065031;23;20174;-57
2022/08/30 02:27:25;;;;;;;11.63;8.90;;;16.10;99.90;;;;;;6039703;23;20499;-57
2022/08/30 02:29:55;;;;;;;12.43;9.10;;;16.10;99.90;;;;;;6065317;23;20172;-57
2022/08/30 02:32:23;;;;;;;15.00;9.43;;;16.10;99.90;;;;;;6039110;23;20174;-58
2022/08/30 02:34:51;;;;;;;16.37;8.90;;;16.10;99.90;;;;;;6064952;23;20188;-58
2022/08/30 02:37:20;;;;;;;15.40;9.13;;;16.10;99.90;;;;;;6065333;23;20255;-57
2022/08/30 02:39:48;;;;;;;15.70;9.03;;;16.10;99.90;;;;;;6064783;23;20580;-57
2022/08/30 02:42:17;;;;;;;16.57;9.60;;;16.10;99.90;;;;;;6064565;23;20174;-57
2022/08/30 02:44:45;;;;;;;16.30;9.83;;;16.10;99.90;;;;;;6066856;23;20618;-57
2022/08/30 02:47:15;;;;;;;12.53;9.60;;;16.00;99.90;;;;;;6064709;23;20197;-57
2022/08/30 02:49:43;;;;;;;15.00;9.10;;;16.00;99.90;;;;;;6066202;23;20182;-57
2022/08/30 02:52:12;;;;;;;13.23;9.87;;;16.10;99.90;;;;;;6065977;23;20174;-58
2022/08/30 02:54:40;;;;;;;13.37;9.27;;;16.10;99.90;;;;;;6065565;23;20267;-57
2022/08/30 02:57:08;;;;;;;14.93;9.67;;;16.10;99.90;;;;;;6066268;23;20258;-57
2022/08/30 02:59:47;;;;;;;15.50;8.43;;;16.10;99.90;;;;;;6039686;23;20216;-58
2022/08/30 03:02:24;;;;;;;11.10;8.70;;;16.20;99.90;;;;;;6064383;23;20273;-58
2022/08/30 03:04:53;;;;;;;15.77;9.40;;;16.20;99.90;;;;;;6066080;23;20188;-57
2022/08/30 03:07:22;;;;;;;17.47;9.43;;;16.30;99.90;;;;;;6063938;23;20471;-57
2022/08/30 03:09:51;;;;;;;17.40;8.77;;;16.30;99.90;;;;;;6064481;23;20171;-58
2022/08/30 03:12:20;;;;;;;13.37;8.90;;;16.30;99.90;;;;;;6065280;23;20170;-57
2022/08/30 03:14:49;;;;;;;18.17;8.73;;;16.30;99.90;;;;;;6039821;23;20267;-57
2022/08/30 03:17:17;;;;;;;15.43;9.53;;;16.30;99.90;;;;;;6064968;23;20222;-58
2022/08/30 03:19:47;;;;;;;16.57;8.50;;;16.30;99.90;;;;;;6066013;23;20195;-57
2022/08/30 03:22:16;;;;;;;12.63;8.57;;;16.30;99.90;;;;;;6065309;23;20219;-58
2022/08/30 03:24:44;;;;;;;13.03;8.20;;;16.40;99.90;;;;;;6065685;23;20248;-57
2022/08/30 03:27:12;;;;;;;13.70;8.73;;;16.40;99.90;;;;;;6039116;23;20960;-57
2022/08/30 03:29:41;;;;;;;12.77;8.27;;;16.40;99.90;;;;;;6065949;23;20203;-58
2022/08/30 03:32:09;;;;;;;14.23;8.00;;;16.40;99.90;;;;;;6063995;23;20168;-57
2022/08/30 03:34:38;;;;;;;11.93;8.57;;;16.40;99.90;;;;;;6064822;23;20559;-58
2022/08/30 03:37:08;;;;;;;12.27;8.07;;;16.40;99.90;;;;;;6063997;23;20168;-57
2022/08/30 03:39:36;;;;;;;12.27;8.23;;;16.30;99.90;;;;;;6064122;23;20172;-57
2022/08/30 03:42:05;;;;;;;15.87;9.33;;;16.30;99.90;;;;;;6038655;23;20260;-57
2022/08/30 03:44:34;;;;;;;15.10;8.60;;;16.30;99.90;;;;;;6040522;23;20174;-57
2022/08/30 03:47:04;;;;;;;14.10;8.70;;;16.20;99.90;;;;;;6039375;23;20181;-57
2022/08/30 03:49:32;;;;;;;15.90;8.50;;;16.20;99.90;;;;;;6064942;23;20258;-57
2022/08/30 03:52:00;;;;;;;13.77;8.50;;;16.20;99.90;;;;;;6065441;23;20250;-57
2022/08/30 03:54:30;;;;;;;14.73;8.50;;;16.10;99.90;;;;;;6065846;23;20201;-57
2022/08/30 03:56:59;;;;;;;12.63;8.20;;;16.20;99.90;;;;;;6065572;23;20173;-57
2022/08/30 03:59:27;;;;;;;11.43;8.87;;;16.20;99.90;;;;;;6065000;23;20556;-57
2022/08/30 04:01:55;;;;;;;12.27;8.63;;;16.20;99.90;;;;;;6062233;23;20177;-57
2022/08/30 04:04:24;;;;;;;11.00;8.53;;;16.20;99.90;;;;;;6039510;23;20171;-57
2022/08/30 04:06:53;;;;;;;11.77;8.50;;;16.30;99.90;;;;;;6064543;23;20194;-57
2022/08/30 04:09:21;;;;;;;13.77;7.93;;;16.30;99.90;;;;;;6040033;23;20180;-58
2022/08/30 04:11:51;;;;;;;12.07;9.30;;;16.30;99.90;;;;;;6064572;23;20226;-58
2022/08/30 04:14:19;;;;;;;13.67;8.57;;;16.30;99.90;;;;;;6063679;23;20229;-58
2022/08/30 04:16:47;;;;;;;10.70;7.73;;;16.30;99.90;;;;;;6064509;23;20299;-57
2022/08/30 04:19:16;;;;;;;10.03;8.23;;;16.30;99.90;;;;;;6037224;23;20170;-58
2022/08/30 04:21:45;;;;;;;9.07;7.90;;;16.30;99.90;;;;;;6063834;23;20172;-57
2022/08/30 04:24:16;;;;;;;16.23;8.73;;;16.30;99.90;;;;;;6065134;23;20177;-58
2022/08/30 04:26:44;;;;;;;11.60;8.60;;;16.30;99.90;;;;;;6038552;23;20657;-58
2022/08/30 04:29:15;;;;;;;18.03;8.77;;;16.30;99.90;;;;;;6038360;23;20275;-57
2022/08/30 04:31:44;;;;;;;13.83;8.30;;;16.20;99.90;;;;;;6064195;23;20204;-56
2022/08/30 04:34:13;;;;;;;12.73;8.77;;;16.20;99.90;;;;;;6064976;23;20170;-58
2022/08/30 04:36:44;;;;;;;11.87;8.50;;;16.20;99.90;;;;;;6065027;23;20247;-58
2022/08/30 04:39:15;;;;;;;12.63;8.93;;;16.20;99.90;;;;;;6065150;23;20244;-58
2022/08/30 04:41:44;;;;;;;16.20;9.23;;;16.10;99.90;;;;;;6065719;23;20176;-57
2022/08/30 04:44:14;;;;;;;14.40;8.90;;;16.10;99.90;;;;;;6063863;23;20168;-58
2022/08/30 04:46:46;;;;;;;13.10;8.90;;;16.10;99.90;;;;;;6067259;23;20540;-58
2022/08/30 04:49:15;;;;;;;13.13;9.30;;;16.00;99.90;;;;;;6067321;23;20250;-57
2022/08/30 04:51:43;;;;;;;13.27;9.30;;;16.00;99.90;;;;;;6065906;23;20614;-58
2022/08/30 04:54:12;;;;;;;13.80;9.10;;;16.00;99.90;;;;;;6067295;23;20250;-57
2022/08/30 04:56:40;;;;;;;13.70;9.27;;;16.00;99.90;;;;;;6039584;23;20192;-57
2022/08/30 04:59:08;;;;;;;12.50;9.10;;;16.00;99.90;;;;;;6066199;23;20173;-57
2022/08/30 05:01:38;;;;;;;11.17;8.77;;;15.90;99.90;;;;;;6041629;23;20688;-57
2022/08/30 05:04:13;;;;;;;10.60;9.03;;;15.90;99.90;;;;;;6040498;23;20209;-57
2022/08/30 05:06:41;;;;;;;16.93;9.70;;;15.90;99.90;;;;;;6065773;23;20608;-57
2022/08/30 05:09:10;;;;;;;17.47;9.30;;;15.90;99.90;;;;;;6065879;23;20170;-57
2022/08/30 05:11:38;;;;;;;12.37;8.90;;;15.90;99.90;;;;;;6067434;23;20464;-57
2022/08/30 05:14:10;;;;;;;13.77;9.80;;;15.90;99.90;;;;;;6064300;23;20171;-57
2022/08/30 05:16:41;;;;;;;10.40;9.30;;;15.90;99.90;;;;;;6066517;23;20649;-57
2022/08/30 05:19:10;;;;;;;11.47;9.63;;;15.90;99.90;;;;;;6066630;23;20181;-57
2022/08/30 05:21:39;;;;;;;14.03;9.50;;;15.90;99.90;;;;;;6066389;23;20610;-58
2022/08/30 05:24:08;;;;;;;12.83;9.30;;;15.90;99.90;;;;;;6065615;23;20519;-58
2022/08/30 05:26:39;;;;;;;14.33;9.90;;;15.90;99.90;;;;;;6066417;23;20272;-57
2022/08/30 05:29:07;;;;;;;15.77;10.13;;;16.00;99.90;;;;;;6065868;23;20174;-58
2022/08/30 05:31:36;;;;;;;19.37;10.13;;;16.00;99.90;;;;;;6040923;23;20470;-58
2022/08/30 05:34:06;;;;;;;13.10;9.43;;;16.00;99.90;;;;;;6065751;23;20172;-57
2022/08/30 05:36:36;;;;;;;13.40;9.27;;;16.00;99.90;;;;;;6065420;23;20214;-57
2022/08/30 05:39:05;;;;;;;12.37;9.90;;;16.00;99.90;;;;;;6065130;23;20205;-58
2022/08/30 05:41:34;;;;;;;14.23;9.83;;;16.10;99.90;;;;;;6065334;23;20196;-56
2022/08/30 05:44:05;;;;;;;14.33;9.20;;;16.10;99.90;;;;;;6040841;23;20262;-58
2022/08/30 05:46:35;;;;;;;10.47;9.43;;;16.20;99.90;;;;;;6038872;23;20202;-58
2022/08/30 05:49:07;;;;;;;17.10;10.47;;;16.20;99.90;;;;;;6064769;23;20170;-58
2022/08/30 05:51:37;;;;;;;11.30;9.10;;;16.30;99.90;;;;;;6066010;23;20171;-58
2022/08/30 05:54:11;;;;;;;14.10;9.43;;;16.30;99.90;;;;;;6065383;23;20177;-57
2022/08/30 05:56:42;;;;;;;11.57;9.33;;;16.40;99.90;;;;;;6066108;23;20199;-58
2022/08/30 05:59:10;;;;;;;14.90;9.73;;;16.50;99.90;;;;;;6064937;23;20248;-57
2022/08/30 06:01:40;;;;;;;13.57;9.20;;;16.60;99.90;;;;;;6040881;23;20640;-57
2022/08/30 06:04:12;;;;;;;15.37;9.67;;;16.70;99.90;;;;;;6065362;23;20219;-57
2022/08/30 06:06:43;;;;;;;10.83;8.87;;;16.80;99.90;;;;;;6065357;23;20172;-58
2022/08/30 06:09:12;;;;;;;13.83;9.37;;;16.80;99.90;;;;;;6064467;23;20164;-57
2022/08/30 06:11:41;;;;;;;15.97;9.53;;;16.90;99.90;;;;;;6064569;23;20164;-57
2022/08/30 06:14:09;;;;;;;11.53;9.83;;;17.00;99.90;;;;;;6065004;23;20169;-58
2022/08/30 06:16:39;;;;;;;10.10;8.00;;;17.10;99.90;;;;;;6066460;23;20190;-57
2022/08/30 06:19:10;;;;;;;15.93;8.83;;;17.10;99.90;;;;;;6064617;23;20239;-58
2022/08/30 06:21:40;;;;;;;10.60;8.43;;;17.20;99.90;;;;;;6065420;23;20704;-58
2022/08/30 06:24:10;;;;;;;10.57;8.50;;;17.20;99.90;;;;;;6038624;23;20258;-57
2022/08/30 06:26:41;;;;;;;15.27;9.40;;;17.20;99.90;;;;;;6064038;23;20495;-58
2022/08/30 06:29:11;;;;;;;12.67;8.77;;;17.30;99.90;;;;;;6064589;23;20260;-57
2022/08/30 06:31:39;;;;;;;11.87;8.73;;;17.40;99.90;;;;;;6063748;23;20168;-57
2022/08/30 06:34:08;;;;;;;15.17;9.27;;;17.40;99.90;;;;;;6066062;23;20562;-57
2022/08/30 06:36:38;;;;;;;12.07;8.67;;;17.50;99.90;;;;;;6065710;23;20276;-57
2022/08/30 06:39:08;;;;;;;12.70;8.70;;;17.50;99.90;;;;;;6065005;23;20164;-58
2022/08/30 06:41:39;;;;;;;13.33;9.70;;;17.60;99.90;;;;;;6064027;23;20168;-58
2022/08/30 06:44:07;;;;;;;13.07;8.50;;;17.60;99.90;;;;;;6065004;23;20190;-57
2022/08/30 06:46:38;;;;;;;12.83;8.93;;;17.70;99.90;;;;;;6063440;23;20578;-57
2022/08/30 06:49:07;;;;;;;15.17;8.90;;;17.80;99.90;;;;;;6062809;23;20235;-57
2022/08/30 06:51:39;;;;;;;13.47;8.67;;;17.90;99.90;;;;;;6064593;23;20247;-57
2022/08/30 06:54:10;;;;;;;16.73;9.27;;;18.00;99.90;;;;;;6064818;23;20490;-57
2022/08/30 06:56:39;;;;;;;11.30;8.90;;;18.00;99.90;;;;;;6064659;23;20223;-58
2022/08/30 06:59:25;;;;;;;15.70;8.27;;;18.00;99.90;;;;;;6064194;23;20179;-58
2022/08/30 07:01:54;;;;;;;10.33;8.43;;;18.10;99.90;;;;;;6012584;23;20169;-57
2022/08/30 07:04:23;;;;;;;17.10;9.20;;;18.20;99.90;;;;;;6038774;23;20247;-58
2022/08/30 07:06:53;;;;;;;11.57;8.90;;;18.30;99.90;;;;;;6065883;23;20222;-58
2022/08/30 07:09:22;;;;;;;15.33;8.77;;;18.40;99.90;;;;;;6061950;23;20247;-57
2022/08/30 07:11:51;;;;;;;13.50;9.23;;;18.50;99.90;;;;;;6065336;23;20196;-58
2022/08/30 07:14:20;;;;;;;9.67;8.23;;;18.70;99.90;;;;;;6064584;23;20190;-58
2022/08/30 07:16:48;;;;;;;12.73;9.20;;;18.80;99.90;;;;;;6037228;23;20671;-58
2022/08/30 07:19:18;;;;;;;11.47;8.20;;;18.90;99.90;;;;;;6061337;23;20160;-58
2022/08/30 07:21:49;;;;;;;22.63;9.23;;;18.90;99.90;;;;;;6061749;23;20196;-58
2022/08/30 07:24:20;;;;;;;14.00;8.93;;;19.00;99.90;;;;;;6064500;23;20542;-58
2022/08/30 07:26:50;;;;;;;11.37;8.47;;;19.20;99.90;;;;;;6063621;23;20275;-58
2022/08/30 07:29:19;;;;;;;16.60;9.10;;;19.20;99.90;;;;;;6063185;23;20200;-58
2022/08/30 07:31:48;;;;;;;10.20;8.50;;;19.30;99.90;;;;;;6060472;23;20172;-58
2022/08/30 07:34:17;;;;;;;16.90;8.10;;;19.30;99.90;;;;;;6059157;23;20247;-57
2022/08/30 07:36:48;;;;;;;10.87;8.80;;;19.30;99.90;;;;;;6062958;23;20486;-57
2022/08/30 07:39:16;;;;;;;14.17;8.87;;;19.30;99.90;;;;;;6062226;23;20247;-56
2022/08/30 07:41:47;;;;;;;16.30;9.10;;;19.40;99.90;;;;;;6037933;23;20251;-57
2022/08/30 07:44:15;;;;;;;12.50;7.93;;;19.60;99.90;;;;;;6060070;23;20235;-57
2022/08/30 07:46:44;;;;;;;13.07;8.43;;;19.70;99.90;;;;;;6061974;23;20219;-57
2022/08/30 07:49:12;;;;;;;13.10;9.30;;;19.80;99.90;;;;;;6059252;23;20169;-57
2022/08/30 07:51:41;;;;;;;10.67;8.77;;;20.00;99.90;;;;;;6034410;23;20199;-57
2022/08/30 07:54:09;;;;;;;11.23;7.77;;;20.00;99.90;;;;;;6060687;23;20254;-57
2022/08/30 07:56:37;;;;;;;9.23;8.33;;;20.20;99.90;;;;;;6062741;23;20286;-57
2022/08/30 07:59:07;;;;;;;9.53;7.73;;;20.30;99.90;;;;;;6059394;23;20229;-57
2022/08/30 08:01:35;;;;;;;12.13;7.80;;;20.60;99.90;;;;;;6061954;23;20200;-57
2022/08/30 08:04:04;;;;;;;12.43;8.17;;;20.60;99.90;;;;;;6061076;23;20227;-57
2022/08/30 08:06:32;;;;;;;8.90;7.83;;;20.70;99.90;;;;;;6061959;23;20192;-56
2022/08/30 08:09:02;;;;;;;10.37;7.47;;;20.90;99.90;;;;;;6030891;23;20258;-57
2022/08/30 08:11:31;;;;;;;9.00;8.10;;;21.00;99.90;;;;;;6037012;23;20660;-57
2022/08/30 08:14:02;;;;;;;10.03;7.63;;;21.10;99.90;;;;;;6062957;23;20168;-57
2022/08/30 08:16:36;;;;;;;9.10;7.07;;;21.20;99.90;;;;;;6060971;23;20192;-57
2022/08/30 08:19:07;;;;;;;14.30;8.00;;;21.30;99.90;;;;;;6038606;23;20447;-57
2022/08/30 08:21:37;;;;;;;12.10;7.20;;;21.40;99.90;;;;;;6063743;23;20172;-58
2022/08/30 08:24:06;;;;;;;11.90;7.80;;;21.40;99.90;;;;;;6037935;23;20700;-57
2022/08/30 08:26:36;;;;;;;7.17;6.30;;;21.50;99.90;;;;;;6034846;23;20206;-57
2022/08/30 08:29:06;;;;;;;10.47;6.87;;;21.60;99.90;;;;;;6061055;23;20198;-57
2022/08/30 08:31:36;;;;;;;10.47;6.87;;;21.80;99.90;;;;;;6061098;23;20727;-57
2022/08/30 08:34:05;;;;;;;7.43;6.80;;;21.90;99.90;;;;;;6059821;23;20169;-58
2022/08/30 08:36:34;;;;;;;10.60;7.17;;;22.10;99.90;;;;;;6059902;23;20174;-58
2022/08/30 08:39:06;;;;;;;12.43;6.83;;;22.20;99.90;;;;;;6060595;23;20188;-57
2022/08/30 08:41:49;;;;;;;9.07;6.43;;;22.20;99.90;;;;;;6059931;23;20179;-57
2022/08/30 08:44:28;;;;;;;10.03;7.00;;;22.40;99.90;;;;;;6063387;23;20221;-57
2022/08/30 08:47:11;;;;;;;7.30;6.60;;;22.60;99.90;;;;;;6062069;23;20166;-58
2022/08/30 08:49:44;;;;;;;9.13;6.57;;;22.80;99.90;;;;;;6055661;23;20188;-57
2022/08/30 08:55:11;;;;;;;8.63;6.30;;;22.80;99.90;;;;;;6061313;23;20560;-58
2022/08/30 08:57:40;;;;;;;8.77;6.10;;;22.80;99.90;;;;;;6062526;23;20224;-58
2022/08/30 09:00:11;;;;;;;12.33;6.13;;;22.80;99.90;;;;;;6034927;23;20212;-57
2022/08/30 09:02:44;;;;;;;7.40;5.93;;;22.90;99.90;;;;;;6062290;23;20174;-58
2022/08/30 09:05:18;;;;;;;6.60;5.77;;;23.20;99.90;;;;;;6062009;23;20200;-57
2022/08/30 09:07:52;;;;;;;5.80;5.07;;;23.30;99.90;;;;;;6064416;23;20201;-57
2022/08/30 09:10:21;;;;;;;8.27;5.77;;;23.60;99.90;;;;;;6063732;23;20167;-58
2022/08/30 09:13:09;;;;;;;5.43;5.00;;;23.80;99.90;;;;;;6063315;23;20171;-58
2022/08/30 09:15:41;;;;;;;8.23;5.33;;;24.00;99.90;;;;;;6057217;23;20172;-58
2022/08/30 09:18:12;;;;;;;8.57;5.83;;;24.00;99.90;;;;;;6062666;23;20191;-58
2022/08/30 09:20:51;;;;;;;8.83;5.33;;;24.00;99.90;;;;;;6061493;23;20154;-58
2022/08/30 09:23:27;;;;;;;7.67;5.57;;;24.00;99.90;;;;;;6060876;23;20209;-58
2022/08/30 09:25:59;;;;;;;8.07;5.33;;;23.90;99.90;;;;;;6062286;23;20270;-58
2022/08/30 09:28:29;;;;;;;5.03;4.53;;;24.00;99.90;;;;;;6061054;23;20168;-58
2022/08/30 09:31:05;;;;;;;6.90;4.83;;;24.10;99.90;;;;;;6037334;23;20576;-57
2022/08/30 09:33:41;;;;;;;5.50;4.77;;;24.30;99.90;;;;;;6062382;23;20195;-58
2022/08/30 09:36:21;;;;;;;6.07;4.80;;;24.40;99.90;;;;;;6064252;23;20539;-59
2022/08/30 09:38:59;;;;;;;4.73;4.43;;;24.40;99.90;;;;;;6064198;23;20191;-58
2022/08/30 09:41:35;;;;;;;7.27;4.57;;;24.30;99.90;;;;;;6064916;23;20233;-58
2022/08/30 09:44:10;;;;;;;8.10;4.80;;;24.30;99.90;;;;;;6063276;23;20175;-58
2022/08/30 09:46:51;;;;;;;8.47;4.67;;;24.20;99.90;;;;;;6064489;23;20171;-59
2022/08/30 09:49:32;;;;;;;8.70;4.60;;;24.50;99.90;;;;;;6064362;23;20248;-58
2022/08/30 09:52:17;;;;;;;5.97;4.10;;;24.70;99.90;;;;;;6064239;23;20172;-57
2022/08/30 09:54:59;;;;;;;6.77;4.57;;;25.10;99.90;;;;;;6063795;23;20586;-58
2022/08/30 09:57:35;;;;;;;5.63;3.83;;;25.30;99.90;;;;;;6064163;23;20676;-58
2022/08/30 10:00:07;;;;;;;9.60;3.80;;;25.40;99.90;;;;;;6064150;23;20243;-58
2022/08/30 10:03:12;;;;;;;7.23;4.10;;;25.40;99.90;;;;;;6062545;23;20192;-58
2022/08/30 10:05:51;;;;;;;3.83;3.53;;;25.20;99.90;;;;;;6038153;23;20178;-58
2022/08/30 10:08:37;;;;;;;9.33;4.10;;;25.30;99.90;;;;;;6038318;23;20223;-58
2022/08/30 10:11:11;;;;;;;4.10;3.70;;;25.40;99.90;;;;;;6035349;23;20283;-57
2022/08/30 10:13:56;;;;;;;7.40;3.25;;;25.80;99.90;;;;;;6037887;23;20246;-58
2022/08/30 10:16:36;;;;;;;6.32;3.60;;;26.40;99.90;;;;;;6060921;23;20169;-58
2022/08/30 10:19:16;;;;;;;6.47;3.80;;;26.50;99.90;;;;;;6037624;23;20315;-58
2022/08/30 10:21:54;;;;;;;6.10;3.50;;;26.30;99.90;;;;;;6064324;23;20670;-58
2022/08/30 10:24:28;;;;;;;5.33;3.63;;;26.00;99.90;;;;;;6060082;23;20171;-58
2022/08/30 10:27:05;;;;;;;3.30;3.05;;;26.20;99.90;;;;;;6061590;23;20200;-58
2022/08/30 10:29:40;;;;;;;8.37;3.83;;;26.30;99.90;;;;;;6037915;23;20577;-57
2022/08/30 10:32:18;;;;;;;5.78;3.13;;;26.30;99.90;;;;;;6063120;23;20200;-58
2022/08/30 10:34:51;;;;;;;5.20;3.28;;;26.60;99.90;;;;;;6062802;23;20193;-57
2022/08/30 10:37:24;;;;;;;4.88;3.28;;;26.80;99.90;;;;;;6062319;23;20173;-58
2022/08/30 10:39:57;;;;;;;9.43;3.30;;;26.90;99.90;;;;;;6061923;23;20371;-58
2022/08/30 10:42:30;;;;;;;4.53;3.10;;;26.90;99.90;;;;;;6062337;23;20173;-58
2022/08/30 10:45:07;;;;;;;4.45;2.90;;;27.00;99.90;;;;;;6063049;23;20736;-58
2022/08/30 10:47:42;;;;;;;5.63;3.40;;;27.20;99.90;;;;;;6035480;23;20177;-58
2022/08/30 10:50:13;;;;;;;3.83;3.20;;;27.40;99.90;;;;;;6037756;23;20173;-58
2022/08/30 10:52:48;;;;;;;4.38;3.13;;;27.10;99.90;;;;;;6062912;23;20251;-58
2022/08/30 10:55:21;;;;;;;7.45;3.65;;;26.80;99.90;;;;;;6061995;23;20168;-58
2022/08/30 10:57:50;;;;;;;6.90;3.63;;;26.30;99.90;;;;;;6037657;23;20498;-58
2022/08/30 11:00:25;;;;;;;11.00;3.80;;;26.00;99.90;;;;;;6063552;23;20169;-58
2022/08/30 11:03:22;;;;;;;6.83;3.30;;;26.00;99.90;;;;;;6062858;23;20521;-58
2022/08/30 11:06:09;;;;;;;8.43;3.20;;;26.20;99.90;;;;;;6061197;23;20165;-58
2022/08/30 11:09:00;;;;;;;6.70;3.07;;;26.40;99.90;;;;;;6061782;23;20196;-58
2022/08/30 11:11:41;;;;;;;3.17;2.97;;;27.00;99.90;;;;;;6063484;23;20172;-58
2022/08/30 11:14:14;;;;;;;3.15;2.95;;;27.10;99.90;;;;;;6064584;23;20205;-58
2022/08/30 11:16:45;;;;;;;7.97;3.60;;;27.50;99.90;;;;;;6062240;23;20168;-58
2022/08/30 11:19:20;;;;;;;3.47;3.05;;;27.80;99.90;;;;;;6063979;23;20190;-58
2022/08/30 11:21:50;;;;;;;5.10;2.85;;;28.20;99.90;;;;;;6064773;23;20191;-58
2022/08/30 11:24:21;;;;;;;4.35;3.00;;;28.20;99.90;;;;;;6065133;23;20177;-58
2022/08/30 11:26:59;;;;;;;4.25;3.40;;;28.30;99.90;;;;;;6065429;23;20793;-58
2022/08/30 11:29:33;;;;;;;6.13;3.30;;;28.10;99.90;;;;;;6064176;23;20196;-58
2022/08/30 11:32:24;;;;;;;6.72;3.70;;;28.00;99.90;;;;;;6065330;23;20167;-58
2022/08/30 11:34:59;;;;;;;4.90;3.58;;;27.50;99.90;;;;;;6059193;23;20642;-58
2022/08/30 11:37:37;;;;;;;3.35;3.10;;;27.50;99.90;;;;;;6061391;23;20390;-58
2022/08/30 11:40:23;;;;;;;7.97;3.45;;;27.80;99.90;;;;;;6063004;23;20707;-60
2022/08/30 11:42:54;;;;;;;9.05;3.10;;;28.20;99.90;;;;;;6061936;23;20666;-64
2022/08/30 11:45:45;;;;;;;4.68;3.65;;;28.60;99.90;;;;;;6037320;23;20240;-64
2022/08/30 11:48:47;;;;;;;3.75;3.47;;;28.60;99.90;;;;;;6037446;23;20597;-64
2022/08/30 11:51:50;;;;;;;5.43;2.88;;;28.70;99.90;;;;;;6063503;23;20172;-64
2022/08/30 11:54:50;;;;;;;8.95;3.38;;;28.90;99.90;;;;;;6064578;23;20166;-64
2022/08/30 11:57:30;;;;;;;7.13;3.17;;;29.00;99.90;;;;;;6040040;23;20229;-64
2022/08/30 12:00:07;;;;;;;4.45;3.05;;;29.00;99.90;;;;;;6039226;23;20221;-64
2022/08/30 12:02:55;;;;;;;4.05;3.00;;;29.10;99.90;;;;;;6039676;23;20171;-64
2022/08/30 12:05:48;;;;;;;5.75;3.08;;;29.40;99.90;;;;;;6039340;23;20548;-64
2022/08/30 12:08:52;;;;;;;3.65;2.90;;;29.70;99.90;;;;;;6065750;23;20201;-63
2022/08/30 12:12:03;;;;;;;3.25;3.05;;;29.90;99.90;;;;;;6064889;23;20185;-64
2022/08/30 12:14:47;;;;;;;5.03;3.10;;;29.20;99.90;;;;;;6065108;23;20161;-63
2022/08/30 12:20:17;;;;;;;5.20;3.20;;;28.90;99.90;;;;;;6064588;23;20597;-64
2022/08/30 12:22:48;;;;;;;8.27;3.08;;;29.00;99.90;;;;;;6065651;23;20259;-62
2022/08/30 12:25:23;;;;;;;11.85;3.28;;;29.00;99.90;;;;;;6038343;23;20602;-63
2022/08/30 12:28:07;;;;;;;3.63;3.28;;;29.20;99.90;;;;;;6065262;23;20230;-60
2022/08/30 12:30:38;;;;;;;6.13;3.50;;;29.20;99.90;;;;;;6064269;23;20190;-61
2022/08/30 12:33:12;;;;;;;4.00;3.38;;;28.60;99.90;;;;;;6064937;23;20170;-62
2022/08/30 12:35:44;;;;;;;11.10;3.47;;;28.50;99.90;;;;;;6064514;23;20154;-63
2022/08/30 12:38:18;;;;;;;7.13;3.55;;;28.70;99.90;;;;;;6064659;23;20184;-62
2022/08/30 12:40:59;;;;;;;7.43;4.47;;;28.80;99.90;;;;;;6064514;23;20253;-63
2022/08/30 12:43:33;;;;;;;3.50;3.20;;;28.70;99.90;;;;;;6063645;23;20168;-63
2022/08/30 12:46:14;;;;;;;3.63;3.30;;;28.60;99.90;;;;;;6063611;23;20160;-63
2022/08/30 12:48:43;;;;;;;5.32;3.67;;;28.40;99.90;;;;;;6060484;23;20157;-62
2022/08/30 12:51:27;;;;;;;8.73;3.40;;;28.20;99.90;;;;;;6039434;23;20177;-63
2022/08/30 12:54:04;;;;;;;8.43;3.83;;;28.30;99.90;;;;;;6066234;23;20643;-63
2022/08/30 12:56:56;;;;;;;11.20;3.67;;;28.30;99.90;;;;;;6066470;23;20203;-63
2022/08/30 12:59:49;;;;;;;5.23;3.47;;;28.20;99.90;;;;;;6040106;23;20180;-63
2022/08/30 13:02:41;;;;;;;6.90;3.57;;;28.20;99.90;;;;;;6066151;23;20172;-62
2022/08/30 13:05:42;;;;;;;3.73;3.40;;;28.70;99.90;;;;;;6065573;23;20244;-62
2022/08/30 13:08:24;;;;;;;5.60;3.30;;;28.70;99.90;;;;;;6067998;23;20468;-62
2022/08/30 13:10:59;;;;;;;7.20;3.67;;;28.70;99.90;;;;;;6068023;23;20527;-62
2022/08/30 13:13:40;;;;;;;4.47;3.27;;;28.60;99.90;;;;;;6067025;23;20176;-62
2022/08/30 13:16:26;;;;;;;3.43;3.10;;;28.30;99.90;;;;;;6066419;23;20173;-62